Time;durP1;ratioP1;P1;durP2;ratioP2;P2;SDS_P1;SDS_P2;PMS_P1;PMS_P2;Temp;Humidity;BMP_temperature;BMP_pressure;BME280_temperature;BME280_humidity;BME280_pressure;Samples;Min_cycle;Max_cycle;Signal;HPM_P1;HPM_P2
2023/01/02 00:01:11;;;;;;;;;2.00;1.00;;;;;;;;5106193;27;61903;-77
2023/01/02 00:03:36;;;;;;;;;2.50;1.50;;;;;;;;5106734;27;62089;-77
2023/01/02 00:06:05;;;;;;;;;4.00;1.25;;;;;;;;5105505;27;61765;-77
2023/01/02 00:08:30;;;;;;;;;3.75;2.00;;;;;;;;5105944;27;62057;-77
2023/01/02 00:10:55;;;;;;;;;4.00;2.00;;;;;;;;5106136;27;61904;-77
2023/01/02 00:13:20;;;;;;;;;2.00;2.00;;;;;;;;5106541;27;62094;-77
2023/01/02 00:15:46;;;;;;;;;1.50;1.00;;;;;;;;5105148;27;61852;-77
2023/01/02 00:18:11;;;;;;;;;3.00;1.75;;;;;;;;5105969;27;61849;-77
2023/01/02 00:20:36;;;;;;;;;4.00;2.50;;;;;;;;5105530;27;61856;-77
2023/01/02 00:23:01;;;;;;;;;4.00;3.00;;;;;;;;5104704;27;61732;-77
2023/01/02 00:25:27;;;;;;;;;3.75;2.00;;;;;;;;5105368;27;61954;-77
2023/01/02 00:27:53;;;;;;;;;3.75;2.00;;;;;;;;5106146;27;61879;-77
2023/01/02 00:30:18;;;;;;;;;3.75;0.25;;;;;;;;5105771;27;62140;-77
2023/01/02 00:32:44;;;;;;;;;3.00;1.00;;;;;;;;5105689;27;61966;-77
2023/01/02 00:35:09;;;;;;;;;2.00;1.50;;;;;;;;5105165;27;62586;-77
2023/01/02 00:37:34;;;;;;;;;2.00;1.25;;;;;;;;5105833;27;61871;-77
2023/01/02 00:40:00;;;;;;;;;1.75;0.75;;;;;;;;5105729;27;61765;-77
2023/01/02 00:42:25;;;;;;;;;1.00;1.00;;;;;;;;5104763;27;61907;-77
2023/01/02 00:44:50;;;;;;;;;0.00;0.00;;;;;;;;5105044;27;61993;-77
2023/01/02 00:47:15;;;;;;;;;1.00;1.00;;;;;;;;5105493;27;61930;-77
2023/01/02 00:49:41;;;;;;;;;0.00;0.00;;;;;;;;5105451;27;61830;-77
2023/01/02 00:52:06;;;;;;;;;3.00;0.50;;;;;;;;5105640;27;61923;-77
2023/01/02 00:54:31;;;;;;;;;3.50;1.00;;;;;;;;5105087;27;62642;-77
2023/01/02 00:56:56;;;;;;;;;2.00;1.00;;;;;;;;5105524;27;61971;-77
2023/01/02 00:59:22;;;;;;;;;1.50;1.00;;;;;;;;5105571;27;61749;-77
2023/01/02 01:01:47;;;;;;;;;3.00;0.25;;;;;;;;5105485;27;62021;-77
2023/01/02 01:04:13;;;;;;;;;1.00;1.00;;;;;;;;5104443;27;61711;-77
2023/01/02 01:06:39;;;;;;;;;2.75;1.75;;;;;;;;5105389;27;61939;-77
2023/01/02 01:09:04;;;;;;;;;0.00;0.00;;;;;;;;5104426;27;61978;-77
2023/01/02 01:11:29;;;;;;;;;0.75;0.75;;;;;;;;5105384;27;62028;-77
2023/01/02 01:13:54;;;;;;;;;1.00;0.00;;;;;;;;5103260;27;64767;-77
2023/01/02 01:16:20;;;;;;;;;1.00;1.00;;;;;;;;5104863;27;61628;-77
2023/01/02 01:18:45;;;;;;;;;3.25;1.00;;;;;;;;5103394;27;61934;-77
2023/01/02 01:21:12;;;;;;;;;2.00;0.75;;;;;;;;5105297;27;61979;-77
2023/01/02 01:23:37;;;;;;;;;0.75;0.00;;;;;;;;5104771;27;61764;-77
2023/01/02 01:26:04;;;;;;;;;1.50;1.00;;;;;;;;5105003;27;61682;-77
2023/01/02 01:28:29;;;;;;;;;4.75;1.00;;;;;;;;5105269;27;61631;-77
2023/01/02 01:30:54;;;;;;;;;0.00;0.00;;;;;;;;5103368;27;62086;-77
2023/01/02 01:33:20;;;;;;;;;2.00;1.00;;;;;;;;5102729;27;63540;-77
2023/01/02 01:35:45;;;;;;;;;1.00;1.00;;;;;;;;5105111;27;61799;-77
2023/01/02 01:38:10;;;;;;;;;0.00;0.00;;;;;;;;5104919;27;61851;-77
2023/01/02 01:40:36;;;;;;;;;0.75;0.00;;;;;;;;5105089;27;61642;-77
2023/01/02 01:43:01;;;;;;;;;5.00;1.00;;;;;;;;5104386;27;62794;-77
2023/01/02 01:45:27;;;;;;;;;0.75;0.75;;;;;;;;5104569;27;61780;-77
2023/01/02 01:47:54;;;;;;;;;0.00;0.00;;;;;;;;5102994;27;61811;-77
2023/01/02 01:50:22;;;;;;;;;1.00;1.00;;;;;;;;5103141;27;61928;-77
2023/01/02 01:52:56;;;;;;;;;1.00;0.00;;;;;;;;5102809;27;65204;-77
2023/01/02 01:55:22;;;;;;;;;0.00;0.00;;;;;;;;5104622;27;61762;-77
2023/01/02 01:57:50;;;;;;;;;2.25;0.00;;;;;;;;5104691;27;61781;-77
2023/01/02 02:00:15;;;;;;;;;1.00;0.00;;;;;;;;5104448;27;62066;-77
2023/01/02 02:02:42;;;;;;;;;0.00;0.00;;;;;;;;5103426;27;61990;-77
2023/01/02 02:05:09;;;;;;;;;1.25;0.00;;;;;;;;5104591;27;61748;-77
2023/01/02 02:07:36;;;;;;;;;0.50;0.00;;;;;;;;5102385;27;61821;-77
2023/01/02 02:10:04;;;;;;;;;1.50;0.00;;;;;;;;5104650;27;61852;-77
2023/01/02 02:12:31;;;;;;;;;0.00;0.00;;;;;;;;5103882;27;62833;-77
2023/01/02 02:14:57;;;;;;;;;1.00;1.00;;;;;;;;5102818;27;61848;-77
2023/01/02 02:17:49;;;;;;;;;0.50;0.00;;;;;;;;5102468;27;61997;-77
2023/01/02 02:20:29;;;;;;;;;0.00;0.00;;;;;;;;5103080;27;61754;-77
2023/01/02 02:23:06;;;;;;;;;0.75;0.75;;;;;;;;5103697;27;61913;-77
2023/01/02 02:25:50;;;;;;;;;0.25;0.25;;;;;;;;5104136;27;61840;-77
2023/01/02 02:28:41;;;;;;;;;2.00;0.00;;;;;;;;5104258;27;61855;-77
2023/01/02 02:31:09;;;;;;;;;0.00;0.00;;;;;;;;5103759;27;62198;-77
2023/01/02 02:33:53;;;;;;;;;0.00;0.00;;;;;;;;5103636;27;62050;-77
2023/01/02 02:36:29;;;;;;;;;1.00;0.00;;;;;;;;5103990;27;61996;-77
2023/01/02 02:39:07;;;;;;;;;0.00;0.00;;;;;;;;5102476;27;61867;-77
2023/01/02 02:41:34;;;;;;;;;0.00;0.00;;;;;;;;5103929;27;62038;-77
2023/01/02 02:44:03;;;;;;;;;0.00;0.00;;;;;;;;5103303;27;62547;-76
2023/01/02 02:46:53;;;;;;;;;0.00;0.00;;;;;;;;5101929;27;61927;-77
2023/01/02 02:49:28;;;;;;;;;0.00;0.00;;;;;;;;5103894;27;61804;-77
2023/01/02 02:51:53;;;;;;;;;0.00;0.00;;;;;;;;5104061;27;61677;-76
2023/01/02 02:54:23;;;;;;;;;1.00;0.00;;;;;;;;5103301;27;61786;-77
2023/01/02 02:56:50;;;;;;;;;0.00;0.00;;;;;;;;5102338;27;61941;-77
2023/01/02 02:59:16;;;;;;;;;1.00;0.00;;;;;;;;5103520;27;61912;-76
2023/01/02 03:01:42;;;;;;;;;1.00;0.00;;;;;;;;5103256;27;61754;-77
2023/01/02 03:04:14;;;;;;;;;0.00;0.00;;;;;;;;5103067;27;61859;-76
2023/01/02 03:06:40;;;;;;;;;0.00;0.00;;;;;;;;5103739;27;61816;-77
2023/01/02 03:09:12;;;;;;;;;0.50;0.00;;;;;;;;5102990;27;61716;-77
2023/01/02 03:11:55;;;;;;;;;1.75;0.00;;;;;;;;5103517;27;61754;-76
2023/01/02 03:14:36;;;;;;;;;0.00;0.00;;;;;;;;5102935;27;62997;-76
2023/01/02 03:17:04;;;;;;;;;0.75;0.00;;;;;;;;5102990;27;61943;-77
2023/01/02 03:19:36;;;;;;;;;0.00;0.00;;;;;;;;5101633;27;61755;-77
2023/01/02 03:22:06;;;;;;;;;1.00;0.00;;;;;;;;5103519;27;61747;-76
2023/01/02 03:24:33;;;;;;;;;0.00;0.00;;;;;;;;5102958;27;62151;-76
2023/01/02 03:27:01;;;;;;;;;0.00;0.00;;;;;;;;5101960;27;61840;-77
2023/01/02 03:29:33;;;;;;;;;0.00;0.00;;;;;;;;5101618;27;61768;-77
2023/01/02 03:32:00;;;;;;;;;0.00;0.00;;;;;;;;5104122;27;62106;-76
2023/01/02 03:34:29;;;;;;;;;0.00;0.00;;;;;;;;5106575;27;61771;-77
2023/01/02 03:37:01;;;;;;;;;0.00;0.00;;;;;;;;5105475;27;61748;-77
2023/01/02 03:39:28;;;;;;;;;0.00;0.00;;;;;;;;5106873;27;61856;-77
2023/01/02 03:42:02;;;;;;;;;0.00;0.00;;;;;;;;5106443;27;61708;-77
2023/01/02 03:44:29;;;;;;;;;0.00;0.00;;;;;;;;5106395;27;61742;-77
2023/01/02 03:47:07;;;;;;;;;0.00;0.00;;;;;;;;5106558;27;61674;-77
2023/01/02 03:49:35;;;;;;;;;0.75;0.00;;;;;;;;5106502;27;61930;-77
2023/01/02 03:52:01;;;;;;;;;0.00;0.00;;;;;;;;5105361;27;62036;-77
2023/01/02 03:54:27;;;;;;;;;0.00;0.00;;;;;;;;5106319;27;61913;-77
2023/01/02 03:56:58;;;;;;;;;0.00;0.00;;;;;;;;5106268;27;62023;-76
2023/01/02 03:59:32;;;;;;;;;0.00;0.00;;;;;;;;5106656;27;61752;-77
2023/01/02 04:01:57;;;;;;;;;0.00;0.00;;;;;;;;5106331;27;61884;-76
2023/01/02 04:04:35;;;;;;;;;0.00;0.00;;;;;;;;5105846;27;61765;-77
2023/01/02 04:07:02;;;;;;;;;0.00;0.00;;;;;;;;5105895;27;62100;-77
2023/01/02 04:09:29;;;;;;;;;0.00;0.00;;;;;;;;5105028;27;61709;-77
2023/01/02 04:12:00;;;;;;;;;0.00;0.00;;;;;;;;5106145;27;62135;-77
2023/01/02 04:14:37;;;;;;;;;0.00;0.00;;;;;;;;5105991;27;61832;-77
2023/01/02 04:17:04;;;;;;;;;0.00;0.00;;;;;;;;5105903;27;61810;-77
2023/01/02 04:19:48;;;;;;;;;0.00;0.00;;;;;;;;5104569;27;61917;-77
2023/01/02 04:22:16;;;;;;;;;0.00;0.00;;;;;;;;5106474;27;61694;-77
2023/01/02 04:24:45;;;;;;;;;0.50;0.00;;;;;;;;5105506;27;61915;-76
2023/01/02 04:27:19;;;;;;;;;0.00;0.00;;;;;;;;5104473;27;62016;-76
2023/01/02 04:29:44;;;;;;;;;0.00;0.00;;;;;;;;5104599;27;61885;-76
2023/01/02 04:32:09;;;;;;;;;0.00;0.00;;;;;;;;5104117;27;61757;-77
2023/01/02 04:34:35;;;;;;;;;0.00;0.00;;;;;;;;5105702;27;62614;-76
2023/01/02 04:37:01;;;;;;;;;0.00;0.00;;;;;;;;5105944;27;61825;-77
2023/01/02 04:39:27;;;;;;;;;0.00;0.00;;;;;;;;5105813;27;61780;-77
2023/01/02 04:41:53;;;;;;;;;0.00;0.00;;;;;;;;5104346;27;61745;-77
2023/01/02 04:44:18;;;;;;;;;0.00;0.00;;;;;;;;5104385;27;61797;-77
2023/01/02 04:46:43;;;;;;;;;0.00;0.00;;;;;;;;5103944;27;61820;-77
2023/01/02 04:49:09;;;;;;;;;0.00;0.00;;;;;;;;5104192;27;61796;-77
2023/01/02 04:51:34;;;;;;;;;0.00;0.00;;;;;;;;5105962;27;61723;-76
2023/01/02 04:53:59;;;;;;;;;0.00;0.00;;;;;;;;5105106;27;62659;-77
2023/01/02 04:56:25;;;;;;;;;0.00;0.00;;;;;;;;5105514;27;61663;-77
2023/01/02 04:58:50;;;;;;;;;1.00;0.00;;;;;;;;5105570;27;61666;-77
2023/01/02 05:01:17;;;;;;;;;0.00;0.00;;;;;;;;5105309;27;61887;-76
2023/01/02 05:03:43;;;;;;;;;0.00;0.00;;;;;;;;5104837;27;62746;-76
2023/01/02 05:06:09;;;;;;;;;0.00;0.00;;;;;;;;5105298;27;62003;-77
2023/01/02 05:08:35;;;;;;;;;0.00;0.00;;;;;;;;5103759;27;61914;-77
2023/01/02 05:11:05;;;;;;;;;0.00;0.00;;;;;;;;5105088;27;61759;-77
2023/01/02 05:13:30;;;;;;;;;0.00;0.00;;;;;;;;5103395;27;63763;-77
2023/01/02 05:15:55;;;;;;;;;0.00;0.00;;;;;;;;5105122;27;61986;-77
2023/01/02 05:18:21;;;;;;;;;0.00;0.00;;;;;;;;5105194;27;62204;-77
2023/01/02 05:20:46;;;;;;;;;0.00;0.00;;;;;;;;5104930;27;61794;-76
2023/01/02 05:25:55;;;;;;;;;0.00;0.00;;;;;;;;5105311;27;62045;-77
2023/01/02 05:28:20;;;;;;;;;0.00;0.00;;;;;;;;5103613;27;61879;-77
2023/01/02 05:30:48;;;;;;;;;0.00;0.00;;;;;;;;5105200;27;61981;-77
2023/01/02 05:33:13;;;;;;;;;0.00;0.00;;;;;;;;5104478;27;62001;-77
2023/01/02 05:35:38;;;;;;;;;0.00;0.00;;;;;;;;5104954;27;62023;-77
2023/01/02 05:38:04;;;;;;;;;0.00;0.00;;;;;;;;5104853;27;61839;-76
2023/01/02 05:40:29;;;;;;;;;0.00;0.00;;;;;;;;5105229;27;61927;-77
2023/01/02 05:42:54;;;;;;;;;0.00;0.00;;;;;;;;5103953;27;62047;-77
2023/01/02 05:45:19;;;;;;;;;0.00;0.00;;;;;;;;5103569;27;61988;-77
2023/01/02 05:47:45;;;;;;;;;0.00;0.00;;;;;;;;5104771;27;61994;-76
2023/01/02 05:50:10;;;;;;;;;0.00;0.00;;;;;;;;5104887;27;61746;-76
2023/01/02 05:52:35;;;;;;;;;0.00;0.00;;;;;;;;5104033;27;62685;-77
2023/01/02 05:55:00;;;;;;;;;0.00;0.00;;;;;;;;5104489;27;62295;-76
2023/01/02 05:57:26;;;;;;;;;0.00;0.00;;;;;;;;5104848;27;61811;-77
2023/01/02 05:59:51;;;;;;;;;0.00;0.00;;;;;;;;5104880;27;61761;-77
2023/01/02 06:02:16;;;;;;;;;0.00;0.00;;;;;;;;5103755;27;61883;-76
2023/01/02 06:04:41;;;;;;;;;0.00;0.00;;;;;;;;5104619;27;61856;-77
2023/01/02 06:07:07;;;;;;;;;0.00;0.00;;;;;;;;5103784;27;61812;-77
2023/01/02 06:09:32;;;;;;;;;1.00;0.00;;;;;;;;5103210;27;62112;-76
2023/01/02 06:11:57;;;;;;;;;0.00;0.00;;;;;;;;5102359;27;64662;-77
2023/01/02 06:14:23;;;;;;;;;0.00;0.00;;;;;;;;5104588;27;61644;-77
2023/01/02 06:16:49;;;;;;;;;0.00;0.00;;;;;;;;5102709;27;61962;-77
2023/01/02 06:19:14;;;;;;;;;0.00;0.00;;;;;;;;5104315;27;62064;-76
2023/01/02 06:21:39;;;;;;;;;0.00;0.00;;;;;;;;5101786;27;64815;-76
2023/01/02 06:24:05;;;;;;;;;0.00;0.00;;;;;;;;5104299;27;61835;-76
2023/01/02 06:26:30;;;;;;;;;0.00;0.00;;;;;;;;5104319;27;61864;-76
2023/01/02 06:28:56;;;;;;;;;0.00;0.00;;;;;;;;5104338;27;61984;-77
2023/01/02 06:31:22;;;;;;;;;0.00;0.00;;;;;;;;5101726;27;64916;-76
2023/01/02 06:33:52;;;;;;;;;0.00;0.00;;;;;;;;5102793;27;61765;-76
2023/01/02 06:36:17;;;;;;;;;0.00;0.00;;;;;;;;5102392;27;62600;-76
2023/01/02 06:38:44;;;;;;;;;0.00;0.00;;;;;;;;5104164;27;61683;-76
2023/01/02 06:41:09;;;;;;;;;1.00;0.00;;;;;;;;5103244;27;61671;-76
2023/01/02 06:43:35;;;;;;;;;0.00;0.00;;;;;;;;5103784;27;61713;-76
2023/01/02 06:46:03;;;;;;;;;0.00;0.00;;;;;;;;5104022;27;61987;-77
2023/01/02 06:48:30;;;;;;;;;0.00;0.00;;;;;;;;5102196;27;61894;-77
2023/01/02 06:50:55;;;;;;;;;0.00;0.00;;;;;;;;5102511;27;62700;-77
2023/01/02 06:53:20;;;;;;;;;0.00;0.00;;;;;;;;5102262;27;61900;-76
2023/01/02 06:55:52;;;;;;;;;0.00;0.00;;;;;;;;5103862;27;61910;-77
2023/01/02 06:58:17;;;;;;;;;0.00;0.00;;;;;;;;5102447;27;62704;-77
2023/01/02 07:00:43;;;;;;;;;0.00;0.00;;;;;;;;5101677;27;63767;-76
2023/01/02 07:03:08;;;;;;;;;0.00;0.00;;;;;;;;5103330;27;62969;-77
2023/01/02 07:05:33;;;;;;;;;0.00;0.00;;;;;;;;5103519;27;62038;-76
2023/01/02 07:07:58;;;;;;;;;0.00;0.00;;;;;;;;5102666;27;61784;-77
2023/01/02 07:10:24;;;;;;;;;0.00;0.00;;;;;;;;5103116;27;62683;-77
2023/01/02 07:12:49;;;;;;;;;1.00;0.00;;;;;;;;5103387;27;62011;-76
2023/01/02 07:15:14;;;;;;;;;0.25;0.00;;;;;;;;5102054;27;61814;-77
2023/01/02 07:17:40;;;;;;;;;0.00;0.00;;;;;;;;5103563;27;62113;-76
2023/01/02 07:20:05;;;;;;;;;0.00;0.00;;;;;;;;5100670;27;63952;-77
2023/01/02 07:22:31;;;;;;;;;0.00;0.00;;;;;;;;5103437;27;61862;-77
2023/01/02 07:24:56;;;;;;;;;0.00;0.00;;;;;;;;5102188;27;61886;-77
2023/01/02 07:27:21;;;;;;;;;0.00;0.00;;;;;;;;5102114;27;62220;-77
2023/01/02 07:29:46;;;;;;;;;0.00;0.00;;;;;;;;5102838;27;61823;-77
2023/01/02 07:32:11;;;;;;;;;2.00;0.00;;;;;;;;5102607;27;61947;-77
2023/01/02 07:34:37;;;;;;;;;0.00;0.00;;;;;;;;5101713;27;62220;-76
2023/01/02 07:37:02;;;;;;;;;0.00;0.00;;;;;;;;5101893;27;61763;-77
2023/01/02 07:39:27;;;;;;;;;0.00;0.00;;;;;;;;5101116;27;63535;-77
2023/01/02 07:41:53;;;;;;;;;0.00;0.00;;;;;;;;5102975;27;61910;-77
2023/01/02 07:44:18;;;;;;;;;0.00;0.00;;;;;;;;5101613;27;62064;-77
2023/01/02 07:46:43;;;;;;;;;1.00;0.00;;;;;;;;5103066;27;61611;-77
2023/01/02 07:49:11;;;;;;;;;0.00;0.00;;;;;;;;5102113;27;61892;-77
2023/01/02 07:51:37;;;;;;;;;0.00;0.00;;;;;;;;5103089;27;62050;-77
2023/01/02 07:54:02;;;;;;;;;0.00;0.00;;;;;;;;5101596;27;61957;-76
2023/01/02 07:56:27;;;;;;;;;0.00;0.00;;;;;;;;5103146;27;61888;-77
2023/01/02 07:58:52;;;;;;;;;0.00;0.00;;;;;;;;5102427;27;62757;-77
2023/01/02 08:01:18;;;;;;;;;0.00;0.00;;;;;;;;5102528;27;62088;-77
2023/01/02 08:03:43;;;;;;;;;0.00;0.00;;;;;;;;5102770;27;62018;-77
2023/01/02 08:06:09;;;;;;;;;0.00;0.00;;;;;;;;5101200;27;61879;-77
2023/01/02 08:08:35;;;;;;;;;0.00;0.00;;;;;;;;5100449;27;63998;-77
2023/01/02 08:11:08;;;;;;;;;0.00;0.00;;;;;;;;5102711;27;62510;-77
2023/01/02 08:13:34;;;;;;;;;0.00;0.00;;;;;;;;5102799;27;61742;-77
2023/01/02 08:16:04;;;;;;;;;0.00;0.00;;;;;;;;5103001;27;61931;-76
2023/01/02 08:18:29;;;;;;;;;0.00;0.00;;;;;;;;5101742;27;63023;-77
2023/01/02 08:20:55;;;;;;;;;0.00;0.00;;;;;;;;5104303;27;61748;-77
2023/01/02 08:23:20;;;;;;;;;0.00;0.00;;;;;;;;5106212;27;61868;-77
2023/01/02 08:25:45;;;;;;;;;0.50;0.00;;;;;;;;5106353;27;61900;-76
2023/01/02 08:28:10;;;;;;;;;0.00;0.00;;;;;;;;5105464;27;61823;-77
2023/01/02 08:30:38;;;;;;;;;0.00;0.00;;;;;;;;5105966;27;61936;-77
2023/01/02 08:33:03;;;;;;;;;0.00;0.00;;;;;;;;5105239;27;61801;-77
2023/01/02 08:35:30;;;;;;;;;0.25;0.00;;;;;;;;5106255;27;62075;-77
2023/01/02 08:37:55;;;;;;;;;0.75;0.75;;;;;;;;5103876;27;63984;-77
2023/01/02 08:40:20;;;;;;;;;0.00;0.00;;;;;;;;5105678;27;61807;-77
2023/01/02 08:42:46;;;;;;;;;1.50;0.00;;;;;;;;5105996;27;61773;-77
2023/01/02 08:45:11;;;;;;;;;0.25;0.00;;;;;;;;5106246;27;61721;-77
2023/01/02 08:47:36;;;;;;;;;0.00;0.00;;;;;;;;5104524;27;61911;-77
2023/01/02 08:50:01;;;;;;;;;0.00;0.00;;;;;;;;5105653;27;61780;-76
2023/01/02 08:52:26;;;;;;;;;0.00;0.00;;;;;;;;5105695;27;61740;-77
2023/01/02 08:54:52;;;;;;;;;0.00;0.00;;;;;;;;5104692;27;62021;-77
2023/01/02 08:57:17;;;;;;;;;0.00;0.00;;;;;;;;5105065;27;62717;-77
2023/01/02 08:59:42;;;;;;;;;1.50;0.00;;;;;;;;5105433;27;61787;-77
2023/01/02 09:02:11;;;;;;;;;1.00;0.00;;;;;;;;5105185;27;61700;-77
2023/01/02 09:04:36;;;;;;;;;0.00;0.00;;;;;;;;5105917;27;61631;-77
2023/01/02 09:07:02;;;;;;;;;0.00;0.00;;;;;;;;5104405;27;61839;-77
2023/01/02 09:09:27;;;;;;;;;0.00;0.00;;;;;;;;5104201;27;62613;-77
2023/01/02 09:11:52;;;;;;;;;0.00;0.00;;;;;;;;5105411;27;62066;-77
2023/01/02 09:14:18;;;;;;;;;0.00;0.00;;;;;;;;5105641;27;61737;-77
2023/01/02 09:16:44;;;;;;;;;1.25;0.50;;;;;;;;5104429;27;62906;-77
2023/01/02 09:19:09;;;;;;;;;0.00;0.00;;;;;;;;5105036;27;62037;-77
2023/01/02 09:21:34;;;;;;;;;0.00;0.00;;;;;;;;5105337;27;61894;-77
2023/01/02 09:24:00;;;;;;;;;0.00;0.00;;;;;;;;5105560;27;61990;-77
2023/01/02 09:26:25;;;;;;;;;1.50;1.00;;;;;;;;5104402;27;61947;-77
2023/01/02 09:28:50;;;;;;;;;0.00;0.00;;;;;;;;5103831;27;61884;-77
2023/01/02 09:31:16;;;;;;;;;0.00;0.00;;;;;;;;5103051;27;61938;-77
2023/01/02 09:33:42;;;;;;;;;0.00;0.00;;;;;;;;5103620;27;61878;-77
2023/01/02 09:36:09;;;;;;;;;0.00;0.00;;;;;;;;5104393;27;62838;-77
2023/01/02 09:38:34;;;;;;;;;0.00;0.00;;;;;;;;5104735;27;61851;-77
2023/01/02 09:41:01;;;;;;;;;0.00;0.00;;;;;;;;5105057;27;61844;-77
2023/01/02 09:43:27;;;;;;;;;1.00;0.00;;;;;;;;5105184;27;62102;-77
2023/01/02 09:45:54;;;;;;;;;0.75;0.00;;;;;;;;5104189;27;61815;-77
2023/01/02 09:48:21;;;;;;;;;0.00;0.00;;;;;;;;5104254;27;61737;-77
2023/01/02 09:50:47;;;;;;;;;0.00;0.00;;;;;;;;5104586;27;61877;-77
2023/01/02 09:53:13;;;;;;;;;1.00;1.00;;;;;;;;5104984;27;61694;-77
2023/01/02 09:55:39;;;;;;;;;0.00;0.00;;;;;;;;5103897;27;62528;-77
2023/01/02 09:58:23;;;;;;;;;0.00;0.00;;;;;;;;5104667;27;61682;-77
2023/01/02 10:00:49;;;;;;;;;0.00;0.00;;;;;;;;5104450;27;61661;-76
2023/01/02 10:03:14;;;;;;;;;0.00;0.00;;;;;;;;5104431;27;61825;-77
2023/01/02 10:05:39;;;;;;;;;0.00;0.00;;;;;;;;5102485;27;63719;-77
2023/01/02 10:08:12;;;;;;;;;0.00;0.00;;;;;;;;5102566;27;61795;-77
2023/01/02 10:10:42;;;;;;;;;0.00;0.00;;;;;;;;5103275;27;61990;-77
2023/01/02 10:13:40;;;;;;;;;1.00;0.00;;;;;;;;5104784;27;61817;-77
2023/01/02 10:16:09;;;;;;;;;0.00;0.00;;;;;;;;5063615;28;63881;-77
2023/01/02 10:18:37;;;;;;;;;0.00;0.00;;;;;;;;5063595;28;62037;-77
2023/01/02 10:21:06;;;;;;;;;0.00;0.00;;;;;;;;5081584;28;61769;-77
2023/01/02 10:23:39;;;;;;;;;0.00;0.00;;;;;;;;5081399;28;62063;-77
2023/01/02 10:26:06;;;;;;;;;1.00;1.00;;;;;;;;5063623;28;63852;-77
2023/01/02 10:28:50;;;;;;;;;0.00;0.00;;;;;;;;5064014;28;62006;-77
2023/01/02 10:31:15;;;;;;;;;0.00;0.00;;;;;;;;5063967;28;62051;-77
2023/01/02 10:33:50;;;;;;;;;1.00;1.00;;;;;;;;5081044;28;61922;-78
2023/01/02 10:36:25;;;;;;;;;2.00;1.00;;;;;;;;5063716;28;63808;-77
2023/01/02 10:38:51;;;;;;;;;0.00;0.00;;;;;;;;5080683;28;61290;-77
2023/01/02 10:41:17;;;;;;;;;0.00;0.00;;;;;;;;5080343;28;62228;-77
2023/01/02 10:43:44;;;;;;;;;0.00;0.00;;;;;;;;5063916;28;62281;-77
2023/01/02 10:46:09;;;;;;;;;2.00;1.00;;;;;;;;5080257;28;61834;-77
2023/01/02 10:48:36;;;;;;;;;2.00;2.00;;;;;;;;5080782;28;62111;-77
2023/01/02 10:51:02;;;;;;;;;3.00;1.50;;;;;;;;5085767;27;61859;-77
2023/01/02 10:53:32;;;;;;;;;2.25;0.75;;;;;;;;5102426;27;61753;-77
2023/01/02 10:56:04;;;;;;;;;1.00;1.00;;;;;;;;5103449;27;62761;-77
2023/01/02 10:58:32;;;;;;;;;0.00;0.00;;;;;;;;5103644;27;61976;-77
2023/01/02 11:01:05;;;;;;;;;0.00;0.00;;;;;;;;5103761;27;61793;-77
2023/01/02 11:03:30;;;;;;;;;0.00;0.00;;;;;;;;5101862;27;62054;-77
2023/01/02 11:05:56;;;;;;;;;0.25;0.00;;;;;;;;5103056;27;61767;-77
2023/01/02 11:08:33;;;;;;;;;1.00;1.00;;;;;;;;5101646;27;62054;-76
2023/01/02 11:11:00;;;;;;;;;1.25;1.00;;;;;;;;5103547;27;61749;-77
2023/01/02 11:13:31;;;;;;;;;0.00;0.00;;;;;;;;5103541;27;61910;-76
2023/01/02 11:16:01;;;;;;;;;1.00;0.00;;;;;;;;5102910;27;61750;-77
2023/01/02 11:18:31;;;;;;;;;2.50;0.00;;;;;;;;5101716;27;61899;-77
2023/01/02 11:21:02;;;;;;;;;0.00;0.00;;;;;;;;5103191;27;61718;-77
2023/01/02 11:23:29;;;;;;;;;0.00;0.00;;;;;;;;5103532;27;61756;-77
2023/01/02 11:25:54;;;;;;;;;0.00;0.00;;;;;;;;5102642;27;62100;-78
2023/01/02 11:28:25;;;;;;;;;0.00;0.00;;;;;;;;5103342;27;61845;-77
2023/01/02 11:31:00;;;;;;;;;1.00;1.00;;;;;;;;5102013;27;61730;-77
2023/01/02 11:33:27;;;;;;;;;2.00;1.00;;;;;;;;5103193;27;62224;-77
2023/01/02 11:36:14;;;;;;;;;2.00;0.50;;;;;;;;5101266;27;63716;-77
2023/01/02 11:38:53;;;;;;;;;0.00;0.00;;;;;;;;5101897;27;61774;-77
2023/01/02 11:44:22;;;;;;;;;3.50;1.00;;;;;;;;5103392;27;61582;-77
2023/01/02 11:46:48;;;;;;;;;0.00;0.00;;;;;;;;5102054;27;62858;-77
2023/01/02 11:49:16;;;;;;;;;0.00;0.00;;;;;;;;5102953;27;61804;-78
2023/01/02 11:51:41;;;;;;;;;2.75;1.00;;;;;;;;5102699;27;61884;-78
2023/01/02 11:54:16;;;;;;;;;1.00;1.00;;;;;;;;5104539;27;61745;-77
2023/01/02 11:56:43;;;;;;;;;4.00;1.00;;;;;;;;5104602;27;65003;-78
2023/01/02 11:59:21;;;;;;;;;1.00;0.25;;;;;;;;5105130;27;61799;-78
2023/01/02 12:01:46;;;;;;;;;1.00;1.00;;;;;;;;5106165;27;61759;-77
2023/01/02 12:04:12;;;;;;;;;0.50;0.00;;;;;;;;5106515;27;61722;-77
2023/01/02 12:06:54;;;;;;;;;0.00;0.00;;;;;;;;5106011;27;62471;-78
2023/01/02 12:09:35;;;;;;;;;0.75;0.75;;;;;;;;5106348;27;61928;-77
2023/01/02 12:12:10;;;;;;;;;0.00;0.00;;;;;;;;5104943;27;61793;-77
2023/01/02 12:14:47;;;;;;;;;4.00;1.00;;;;;;;;5105144;27;61805;-77
2023/01/02 12:17:12;;;;;;;;;0.25;0.25;;;;;;;;5105671;27;61858;-77
2023/01/02 12:19:38;;;;;;;;;0.00;0.00;;;;;;;;5104616;27;61804;-77
2023/01/02 12:22:18;;;;;;;;;0.00;0.00;;;;;;;;5106120;27;61885;-78
2023/01/02 12:25:02;;;;;;;;;1.50;0.75;;;;;;;;5106326;27;61764;-77
2023/01/02 12:27:46;;;;;;;;;1.00;0.00;;;;;;;;5105620;27;61746;-77
2023/01/02 12:30:16;;;;;;;;;0.25;0.25;;;;;;;;5106146;27;61980;-77
2023/01/02 12:33:00;;;;;;;;;1.50;0.00;;;;;;;;5105723;27;61672;-77
2023/01/02 12:35:31;;;;;;;;;0.00;0.00;;;;;;;;5106225;27;61828;-78
2023/01/02 12:37:57;;;;;;;;;1.00;1.00;;;;;;;;5105283;27;61828;-78
2023/01/02 12:40:25;;;;;;;;;0.00;0.00;;;;;;;;5105509;27;61900;-77
2023/01/02 12:43:09;;;;;;;;;2.25;1.00;;;;;;;;5105816;27;61829;-77
2023/01/02 12:45:35;;;;;;;;;0.00;0.00;;;;;;;;5104708;27;61876;-77
2023/01/02 12:48:03;;;;;;;;;1.00;0.00;;;;;;;;5104893;27;61977;-77
2023/01/02 12:50:35;;;;;;;;;2.00;0.00;;;;;;;;5105719;27;61682;-78
2023/01/02 12:53:09;;;;;;;;;0.00;0.00;;;;;;;;5105356;27;61750;-77
2023/01/02 12:55:34;;;;;;;;;0.50;0.00;;;;;;;;5104165;27;61931;-77
2023/01/02 12:58:05;;;;;;;;;0.25;0.00;;;;;;;;5104965;27;61950;-77
2023/01/02 13:00:30;;;;;;;;;0.00;0.00;;;;;;;;5104256;27;61912;-77
2023/01/02 13:02:55;;;;;;;;;0.00;0.00;;;;;;;;5103421;27;62053;-77
2023/01/02 13:05:24;;;;;;;;;0.00;0.00;;;;;;;;5105287;27;61838;-78
2023/01/02 13:07:55;;;;;;;;;0.00;0.00;;;;;;;;5104251;27;62837;-77
2023/01/02 13:10:22;;;;;;;;;1.00;1.00;;;;;;;;5105551;27;61729;-77
2023/01/02 13:12:47;;;;;;;;;0.25;0.00;;;;;;;;5105224;27;61892;-77
2023/01/02 13:15:19;;;;;;;;;0.25;0.25;;;;;;;;5105487;27;62097;-77
2023/01/02 13:17:50;;;;;;;;;0.00;0.00;;;;;;;;5104240;27;62129;-77
2023/01/02 13:20:19;;;;;;;;;0.00;0.00;;;;;;;;5104949;27;62309;-77
2023/01/02 13:22:44;;;;;;;;;0.00;0.00;;;;;;;;5103383;27;61931;-77
2023/01/02 13:25:15;;;;;;;;;0.00;0.00;;;;;;;;5105223;27;62163;-77
2023/01/02 13:27:41;;;;;;;;;0.00;0.00;;;;;;;;5103301;27;65027;-78
2023/01/02 13:30:26;;;;;;;;;0.00;0.00;;;;;;;;5105109;27;61904;-78
2023/01/02 13:32:52;;;;;;;;;0.00;0.00;;;;;;;;5104449;27;62111;-78
2023/01/02 13:35:17;;;;;;;;;0.00;0.00;;;;;;;;5105261;27;61623;-78
2023/01/02 13:37:42;;;;;;;;;0.00;0.00;;;;;;;;5102775;27;63854;-78
2023/01/02 13:40:19;;;;;;;;;0.33;0.33;;;;;;;;5104667;27;61881;-78
2023/01/02 13:42:58;;;;;;;;;0.00;0.00;;;;;;;;5104821;27;61943;-78
2023/01/02 13:45:33;;;;;;;;;0.00;0.00;;;;;;;;5104972;27;61965;-78
2023/01/02 13:48:01;;;;;;;;;0.00;0.00;;;;;;;;5102684;27;64119;-78
2023/01/02 13:50:28;;;;;;;;;0.00;0.00;;;;;;;;5104625;27;61893;-78
2023/01/02 13:53:00;;;;;;;;;0.00;0.00;;;;;;;;5104528;27;61761;-78
2023/01/02 13:55:30;;;;;;;;;0.00;0.00;;;;;;;;5104808;27;62118;-78
2023/01/02 13:58:16;;;;;;;;;0.00;0.00;;;;;;;;5104032;27;61849;-77
2023/01/02 14:00:45;;;;;;;;;0.00;0.00;;;;;;;;5104744;27;61744;-78
2023/01/02 14:03:22;;;;;;;;;0.00;0.00;;;;;;;;5104211;27;61624;-78
2023/01/02 14:05:57;;;;;;;;;0.50;0.50;;;;;;;;5103174;27;61909;-78
2023/01/02 14:08:25;;;;;;;;;0.25;0.25;;;;;;;;5103020;27;62482;-77
2023/01/02 14:11:12;;;;;;;;;0.00;0.00;;;;;;;;5102818;27;61886;-78
2023/01/02 14:13:46;;;;;;;;;0.00;0.00;;;;;;;;5102723;27;62011;-78
2023/01/02 14:16:11;;;;;;;;;0.50;0.00;;;;;;;;5101961;27;61857;-78
2023/01/02 14:18:37;;;;;;;;;0.00;0.00;;;;;;;;5102977;27;61968;-78
2023/01/02 14:21:02;;;;;;;;;0.00;0.00;;;;;;;;5102445;27;61851;-78
2023/01/02 14:23:29;;;;;;;;;0.00;0.00;;;;;;;;5104214;27;62424;-78
2023/01/02 14:25:54;;;;;;;;;1.00;0.00;;;;;;;;5104605;27;61710;-78
2023/01/02 14:28:21;;;;;;;;;1.00;0.00;;;;;;;;5103275;27;62543;-77
2023/01/02 14:30:48;;;;;;;;;1.75;0.50;;;;;;;;5094481;27;61971;-77
2023/01/02 14:33:22;;;;;;;;;0.50;0.50;;;;;;;;5080662;27;61858;-77
2023/01/02 14:35:49;;;;;;;;;1.50;0.00;;;;;;;;5083575;28;62095;-78
2023/01/02 14:38:21;;;;;;;;;0.00;0.00;;;;;;;;5082854;28;61951;-78
2023/01/02 14:40:46;;;;;;;;;0.00;0.00;;;;;;;;5081207;28;61917;-79
2023/01/02 14:43:31;;;;;;;;;2.00;0.50;;;;;;;;5081425;28;61955;-81
2023/01/02 14:45:56;;;;;;;;;0.00;0.00;;;;;;;;5082961;28;61708;-79
2023/01/02 14:48:23;;;;;;;;;1.00;1.00;;;;;;;;5081982;28;61816;-80
2023/01/02 14:50:49;;;;;;;;;0.25;0.00;;;;;;;;5082430;28;61852;-78
2023/01/02 14:53:20;;;;;;;;;0.00;0.00;;;;;;;;5081215;28;61798;-77
2023/01/02 14:55:47;;;;;;;;;1.25;0.00;;;;;;;;5083298;28;61745;-79